Photometre #653[NE_1.6] Bayfordbury AOT

File : 20220928_653.hum

28/09/2022,06:53:29,TEMP=12.0,BA=5.64,STAT.h
28/09/2022,06:53:30,TEMP=12.0,BA=5.64,STAT.h
28/09/2022,06:57:44,TEMP=12.0,BA=5.64,STAT.h
28/09/2022,06:57:45,TEMP=12.0,BA=5.64,STAT.h
28/09/2022,07:02:42,TEMP=12.0,BA=5.68,STAT.h
28/09/2022,07:02:43,TEMP=12.0,BA=5.68,STAT.h
28/09/2022,07:08:38,TEMP=12.0,BA=5.68,STAT.h
28/09/2022,07:08:39,TEMP=12.0,BA=5.68,STAT.h
28/09/2022,07:15:48,TEMP=12.0,BA=5.68,STAT.h
28/09/2022,07:15:49,TEMP=12.0,BA=5.68,STAT.h
28/09/2022,07:24:45,TEMP=12.0,BA=5.68,STAT.h
28/09/2022,07:24:51,TEMP=12.0,BA=5.68,STAT.h
28/09/2022,07:36:02,TEMP=12.0,BA=5.68,STAT.h
28/09/2022,07:36:03,TEMP=12.0,BA=5.68,STAT.h
28/09/2022,07:41:30,TEMP=12.0,BA=5.68,STAT.h
28/09/2022,07:41:36,TEMP=12.0,BA=5.68,STAT.h
28/09/2022,07:47:39,TEMP=12.0,BA=5.68,STAT.h
28/09/2022,07:47:40,TEMP=12.0,BA=5.68,STAT.h
28/09/2022,07:54:38,TEMP=12.0,BA=5.68,STAT.h
28/09/2022,07:54:39,TEMP=12.0,BA=5.68,STAT.h
28/09/2022,08:03:01,TEMP=10.8,BA=5.68,STAT.A=9.5,ExtBa=14.48
28/09/2022,08:12:20,TEMP=11.7,BA=5.68,STAT.C=9.5,ExtBa=14.59
28/09/2022,08:27:55,TEMP=12.0,BA=5.48,STAT.A=9.5,ExtBa=12.75
28/09/2022,08:36:32,TEMP=11.7,BA=5.60,STAT.A=10.0,ExtBa=13.80
28/09/2022,08:51:43,TEMP=12.9,BA=5.68,STAT.F,ExtBa=14.52
28/09/2022,09:07:06,TEMP=13.6,BA=5.48,STAT.D=9.5,ExtBa=12.92
28/09/2022,09:21:41,TEMP=13.2,BA=5.68,STAT.D=10.0,ExtBa=14.28
28/09/2022,09:36:41,TEMP=13.4,BA=5.68,STAT.D=10.0,ExtBa=14.20
28/09/2022,09:51:43,TEMP=13.2,BA=5.68,STAT.F,ExtBa=15.19
28/09/2022,10:06:45,TEMP=13.9,BA=5.44,STAT.D=10.0,ExtBa=12.95
28/09/2022,10:21:41,TEMP=14.0,BA=5.68,STAT.D=10.0,ExtBa=14.66
28/09/2022,10:36:41,TEMP=15.3,BA=5.68,STAT.D=10.0,ExtBa=14.24
28/09/2022,10:51:43,TEMP=14.2,BA=5.68,STAT.F,ExtBa=13.86
28/09/2022,11:06:41,TEMP=14.3,BA=5.68,STAT.D=10.0,ExtBa=14.04
28/09/2022,11:21:41,TEMP=14.0,BA=5.68,STAT.D=10.0,ExtBa=14.23
28/09/2022,11:36:41,TEMP=14.3,BA=5.68,STAT.D=10.0,ExtBa=13.96
28/09/2022,11:51:43,TEMP=13.8,BA=5.68,STAT.F,ExtBa=13.64
28/09/2022,12:06:42,TEMP=14.1,BA=5.68,STAT.D=10.0,ExtBa=13.89
28/09/2022,12:21:41,TEMP=14.1,BA=5.68,STAT.D=10.0,ExtBa=13.67
28/09/2022,12:36:41,TEMP=13.7,BA=5.68,STAT.D=10.0,ExtBa=13.41
28/09/2022,12:51:43,TEMP=14.1,BA=5.68,STAT.F,ExtBa=13.66
28/09/2022,13:06:41,TEMP=14.0,BA=5.68,STAT.D=10.0,ExtBa=13.41
28/09/2022,13:21:41,TEMP=13.6,BA=5.64,STAT.D=10.0,ExtBa=13.20
28/09/2022,13:36:41,TEMP=13.5,BA=5.68,STAT.D=10.0,ExtBa=13.05
28/09/2022,13:51:43,TEMP=13.8,BA=5.68,STAT.F,ExtBa=13.03
28/09/2022,14:06:41,TEMP=14.7,BA=5.68,STAT.D=10.0,ExtBa=14.16
28/09/2022,14:21:41,TEMP=15.4,BA=5.68,STAT.D=10.0,ExtBa=14.82
28/09/2022,14:36:41,TEMP=16.5,BA=5.68,STAT.D=10.0,ExtBa=14.63
28/09/2022,14:51:43,TEMP=17.4,BA=5.68,STAT.F,ExtBa=14.53
28/09/2022,15:06:54,TEMP=17.4,BA=5.52,STAT.A=10.0,ExtBa=13.24
28/09/2022,15:20:05,TEMP=17.5,BA=5.64,STAT.A=10.0,ExtBa=14.40
28/09/2022,15:31:04,TEMP=17.4,BA=5.68,STAT.C=10.0,ExtBa=14.30
28/09/2022,15:46:22,TEMP=17.1,BA=5.48,STAT.A=10.0,ExtBa=12.92
28/09/2022,15:48:26,TEMP=17.3,BA=5.48,STAT.A=10.0,ExtBa=12.96
28/09/2022,15:55:23,TEMP=16.8,BA=5.48,STAT.A=10.0,ExtBa=13.38
28/09/2022,16:01:32,TEMP=16.7,BA=5.68,STAT.A=10.0,ExtBa=13.55
28/09/2022,16:07:00,TEMP=16.7,BA=5.68,STAT.B=10.0,ExtBa=13.54
28/09/2022,16:18:20,TEMP=16.5,BA=5.48,STAT.A=10.0,ExtBa=12.92
28/09/2022,16:27:14,TEMP=16.5,BA=5.52,STAT.A=10.0,ExtBa=13.18
28/09/2022,16:34:24,TEMP=16.6,BA=5.68,STAT.A=10.0,ExtBa=13.08
28/09/2022,16:40:20,TEMP=16.4,BA=5.68,STAT.A=10.0,ExtBa=12.93
28/09/2022,16:45:18,TEMP=16.1,BA=5.68,STAT.A=10.0,ExtBa=12.86
28/09/2022,16:49:33,TEMP=15.9,BA=5.68,STAT.A=10.0,ExtBa=12.82